Saturday, May 28, 2016
18:06 UTC
  |  Log In   |  Register Free
Airport Search:

Alpena County Regional Airport
(KAPN)

FAA data valid effective Mar 31 2016 - May 26 2016 (unless otherwise noted).

 
 
 
 
 
 
 
 
 
 
 
 
 
 
Current Aviation Weather for KAPN

Weather Summary


The most recent METAR observation for APN was updated at: 12:54 UTC
METAR for KAPN is not available. Closest METAR is for KPZQ
KAPN  (most recent observation was updatred at 28:17 UTC)
281754Z AUTO 20015G23KT 10SM CLR 29/17 A2994 RMK AO2 SLP135 T02890172 10294 20178 58014

KPZQ  (22.5 nm SE)   (most recent observation was updated at 28:17 UTC)
281755Z AUTO 19011G21KT 10SM CLR 27/18 A2993 RMK AO2 T02690176 10276 20175

TAF for KAPN is not available.
KAPN
281720Z 2818/2918 12008KT P6SM VCSH SCT050 BKN100 FM290200 18005KT P6SM VCSH SCT040 BKN080 FM291400 19008KT P6SM BKN030

GlobalAir.com is loading additional information.
 Current Weather at APN
75.0 F° (23.9 C°)

Southeast winds at 5.8 mph
Pressure:
29.95 in
Humidity:
71%
Wind:
Southeast at 5.8 mph
Dew Point:
64.9 F° (18.3 C°)
Visibility:
10.00 mi
APN NOAA Radar




Find All Airport Services Find A Hotel Find A Rental Car Find A Golf Course Find A Restaurant $100 Hamburger



Airport Weather Forecast for KAPN

Translated METAR for KAPN (1754 UTC)
METAR:
KAPN 281754Z AUTO 20015G23KT 10SM CLR 29/17 A2994 RMK AO2 SLP135 T02890172 10294 20178 58014
Conditions at:
KAPN (Alpena County Rgnl, MI) observed 1754 UTC 28 May 2016
Temperature:
29°C (84.2°F)
Dewpoint:
17°C (62.6°F) [RH = 48.4]
Pressure:
29.94 inches Hg (1013.9 mb)
pressure at sea level is 135 in Hg
Winds:
from the SSW (200 degrees) at 17.3 mph (15 knots: 7.7 m/s)
gusting to 26.5 mph (23 knots: 11.8 m/s)
Visibility:
10 mile(s)
Ceiling:
at least 12,000 feet AGL
Clouds:
Clear below 12,000 feet AGL
Remarks:
site is un-manned
site is automated and HAS a precipitation sensor

Translated TAF for KAPN (Alpena County Rgnl, MI) (1720 UTC)
TAF text:
KAPN 281720Z 2818/2918 12008KT P6SM VCSH SCT050 BKN100
Forecast period:
Saturday May 28 2016 18:00 UTC - Sunday May 29 2016 18:00 UTC
Forecast type:
FROM: standard forecast or significant change
Winds:
from the ESE (120 degrees) at 9.2 mph (8 knots: 4.1 m/s)
Visibility:
6 or more mile(s) (9.7+ km)
Ceiling:
10,000 feet AGL
Clouds:
Scattered Clouds at 5,000 feet AGL
Broken Cloud Cover at 10,000 feet AGL
Weather:
Moderate In Vicinity Shower(s)
TAF text:
FM290200 18005KT P6SM VCSH SCT040 BKN080
Forecast period:
Sunday May 29 2016 02:00 UTC - Sunday May 29 2016 14:00 UTC
Forecast type:
FROM: standard forecast or significant change
Winds:
from the S (180 degrees) at 5.8 mph (5 knots: 2.6 m/s)
Visibility:
6 or more mile(s) (9.7+ km)
Ceiling:
8,000 feet AGL
Clouds:
Scattered Clouds at 4,000 feet AGL
Broken Cloud Cover at 8,000 feet AGL
Weather:
Moderate In Vicinity Shower(s)
TAF text:
FM291400 19008KT P6SM BKN030
Forecast period:
Sunday May 29 2016 14:00 UTC - Sunday May 29 2016 18:00 UTC
Forecast type:
FROM: standard forecast or significant change
Winds:
from the S (190 degrees) at 9.2 mph (8 knots: 4.1 m/s)
Visibility:
6 or more mile(s) (9.7+ km)
Ceiling:
3,000 feet AGL
Clouds:
Broken Cloud Cover at 3,000 feet AGL
Weather:
no significant weather observed at this time
FBO's on the Field
FBO Company Facility Photos Services Transportation Aviation Fuel Prices: Prices include tax
Catering Weather Repair Courtesy Rental Type 100LL JetA JetA+ MOGAS 8087
 
Aviation Express Inc.

Currently rated 5 by 1 person
FS:Shell
Last Updated: May-26
Login to update fuel prices
SS:
Contact Aviation Express Inc.More FBO Information
 
Aviation North

This FBO has not yet been rated
FS:Avfuel
Last Updated: Apr-26
Login to update fuel prices
SS:
Contact Aviation NorthMore FBO Information
 
Add another FBO Facility Photos Catering Weather Repair Courtesy Rental Type 100LL JetA JetA+ MOGAS 8087
Services Transportation Aviation Fuel Prices: Prices include tax


model-print
model-print
model-print
model-print